Atlantic - Newfoundland: Past 24 Hour Conditions

 

St. John's Int'l Airport

10:30 PM NDT 30 July 2014
This table is a summary of hourly weather conditions for the past 24 hours.
Date / Time
(NDT)
Wind(knots) Conditions Visibility(km) Pressure(kPa) Air tempC) Relative humidity(%) Dew pointC) Humidex
30 July 2014
22:30 WSW 11 Cloudy 24 102.4 21 94 20 29
21:30 WSW 12 Mostly Cloudy 24 102.3 22 90 21 31
20:30 SW 15 gust 22 Mainly Sunny 24 102.3 23 86 21 32
19:30 SW 16 gust 21 Partly Cloudy 24 102.3 25 79 21 34
18:30 SW 13 gust 20 Mainly Sunny 24 102.2 28 70 22 37
17:30 WSW 16 gust 21 Mainly Sunny 24 102.2 29 66 22 38
16:30 WSW 16 gust 25 Mainly Sunny 24 102.2 28 68 22 37
15:30 WSW 15 gust 21 Mainly Sunny 24 102.2 29 68 23 39
14:30 WSW 16 gust 21 Mainly Sunny 24 102.3 28 70 22 38
13:30 SW 15 Mainly Sunny 24 102.3 28 72 22 37
12:30 WSW 13 Partly Cloudy 24 102.3 28 71 23 38
11:30 WSW 11 gust 18 Partly Cloudy 24 102.2 28 73 22 37
10:30 WSW 14 gust 19 Partly Cloudy 24 102.3 27 77 23 37
9:30 SW 11 gust 18 Mostly Cloudy 24 102.4 25 84 23 35
8:30 SW 11 gust 20 Mostly Cloudy 19 102.4 24 89 22 34
7:30 SW 9 Partly Cloudy 16 102.3 23 93 22 32
6:30 SW 6 Mist 10 102.3 22 99 21 30
5:30 SW 6 Mostly Cloudy 13 102.2 22 97 22 31
4:30 SW 9 Mist 6 102.2 22 99 22 31
3:30 SW 7 Mist 3 102.2 22 99 21 30
2:30 SW 10 Mist 6 102.2 21 99 21 29
1:30 SW 9 Mist 5 102.2 21 99 21 29
0:30 SSE 7 Mainly Clear 24 102.3 18 98 18 *
29 July 2014
23:30 SSW 8 Mist 8 102.3 20 97 19 *
22:30 SSW 8 Mist 2 102.3 19 99 19 *
 
Map of Atlantic - Newfoundland marine weather areas Southwestern Grand Banks - 44138 Banquereau - 44139 Tail of the Bank - 44140 Nickerson Bank - 44251 Northeast Burgeo Bank - 44255 Blanc-Sablon Airport Cap Whittle Chevery Natashquan Airport Heath Point Miscou Island Grand Étang Ingonish Beach North Mountain St.Paul Island J.A. Douglas McCurdy Sydney Airport Charlottetown Airport East Point North Cape Argentia Bonavista Burgeo Cape Race Corner Brook Daniel's Harbour Englee Ferolle Point La Scie Port aux Basques Rocky Harbour Sagona Island St. Anthony Airport St. John's Int'l Airport St. Lawrence Stephenville Airport Twillingate Winterland Wreckhouse Cartwright Airport Mary's Harbour Grates Cove Pool's Island Marticot Island Long Pond Îles de la Madeleine Airport
Legend: buoyBuoy land stationLand Station